• Join FlightAware (Why Join?)
  • Login
  • US Flag 
05:29AM EST


 

Airport Tracker/Info


-or-


 

Live Flight TrackerFlight Track Log ✈ UAL4550 ✈ 19-May-2013 ✈ KIAH - KMCI

Flight Track Log - Related Links

Times and Time Zones

All times are in EDT time to prevent confusion due to time zone crossing. See the UAL4550 flight status page for this flight to view local times or setup timezone preferences in your user account.

Time Position Orientation Groundspeed Altitude Reporting Facility
EDT Latitude Longitude Course Direction KTS MPH feet Rate Location/Type
10:26PM 29.9781 -95.2933 11° North 174 200 700  Level Houston Center
10:28PM 30.0481 -95.2775 11° North 257 296 2,800 1,440 Climbing Houston Center
10:28PM 30.0586 -95.2833 334° Northwest 250 288 3,000 1,200 Climbing Houston Center
10:28PM 30.1156 -95.3033 343° North 295 339 3,900 1,080 Climbing Houston Center
10:29PM 30.1336 -95.3092 344° North 273 314 4,100 60 Climbing Houston Center
10:29PM 30.1867 -95.3453 330° Northwest 289 333 4,000 -120 Descending Houston Center
10:30PM 30.2011 -95.3594 320° Northwest 286 329 4,000 660 Level Houston Center
10:31PM 30.2572 -95.4069 324° Northwest 284 327 4,800 1,080 Climbing Houston Center
10:31PM 30.2639 -95.4131 322° Northwest 284 327 5,100 1,920 Climbing Houston Center
10:32PM 30.3281 -95.4711 322° Northwest 299 344 7,000 1,740 Climbing Houston Center
10:33PM 30.3939 -95.5281 323° Northwest 294 338 8,700 1,620 Climbing Houston Center
10:34PM 30.4761 -95.5911 327° Northwest 294 338 10,600 1,200 Climbing Houston Center
10:35PM 30.5664 -95.6092 350° North 329 379 11,200 540 Climbing Houston Center
10:36PM 30.6658 -95.6297 350° North 359 413 11,700 720 Climbing Houston Center
10:37PM 30.7656 -95.6500 350° North 374 430 12,700 1,320 Climbing Houston Center
10:39PM 30.9650 -95.6903 350° North 358 412 15,800 1,500 Climbing Houston Center
10:40PM 31.0603 -95.7106 350° North 348 400 17,300 1,440 Climbing Houston Center
10:41PM 31.1558 -95.7297 350° North 345 397 18,800 1,200 Climbing Houston Center
10:42PM 31.2506 -95.7489 350° North 343 395 19,800 1,020 Climbing Houston Center
10:43PM 31.3494 -95.7692 350° North 351 404 20,900 1,020 Climbing Houston Center
10:44PM 31.4503 -95.7906 350° North 360 414 21,900 1,020 Climbing Houston Center
10:45PM 31.5511 -95.8117 350° North 364 419 23,000 1,080 Climbing Houston Center
10:46PM 31.6628 -95.8342 350° North 371 427 24,100 960 Climbing Fort Worth Center
10:47PM 31.7611 -95.8594 348° North 371 427 25,000 960 Climbing Fort Worth Center
10:48PM 31.8639 -95.8822 349° North 371 427 26,100 1,080 Climbing Fort Worth Center
10:49PM 31.9642 -95.9000 351° North 371 427 27,200 1,020 Climbing Fort Worth Center
10:50PM 32.0667 -95.9203 350° North 371 427 28,200 960 Climbing Fort Worth Center
10:51PM 32.1692 -95.9408 350° North 371 427 29,200 960 Climbing Fort Worth Center
10:52PM 32.2697 -95.9639 349° North 371 427 30,200 900 Climbing Fort Worth Center
10:53PM 32.3703 -95.9844 350° North 371 427 31,000 360 Climbing Fort Worth Center
10:54PM 32.4831 -96.0072 350° North 378 435 31,000  Level Fort Worth Center
10:55PM 32.5961 -96.0300 350° North 397 457 31,000  Level Fort Worth Center
10:56PM 32.7156 -96.0553 350° North 417 480 31,000  Level Fort Worth Center
10:57PM 32.8386 -96.0633 357° North 430 495 31,000  Level Fort Worth Center
10:58PM 32.9617 -96.0542 North 435 501 31,000  Level Fort Worth Center
10:59PM 33.0889 -96.0422 North 445 512 31,000  Level Fort Worth Center
11:00PM 33.2142 -96.0281 North 445 512 31,000  Level Fort Worth Center
11:01PM 33.3392 -96.0186 North 445 512 31,000  Level Fort Worth Center
11:02PM 33.4664 -96.0042 North 445 512 31,000  Level Fort Worth Center
11:03PM 33.5936 -95.9919 North 450 518 31,000  Level Fort Worth Center
11:04PM 33.7206 -95.9800 North 455 524 31,000  Level Fort Worth Center
11:05PM 33.8522 -95.9728 North 460 529 31,000  Level Fort Worth Center
11:06PM 33.9772 -95.9583 North 460 529 31,000  Level Fort Worth Center
11:07PM 34.0958 -95.9489 North 453 521 31,000  Level Fort Worth Center
11:08PM 34.2253 -95.9392 North 446 513 31,000  Level Fort Worth Center
11:09PM 34.3522 -95.9244 North 446 513 31,000  Level Fort Worth Center
11:10PM 34.4794 -95.9094 North 452 520 31,000  Level Fort Worth Center
11:11PM 34.6044 -95.8847 North 452 520 31,000  Level Fort Worth Center
11:12PM 34.7225 -95.8294 21° North 446 513 31,000  Level Fort Worth Center
11:13PM 34.8386 -95.7617 26° Northeast 452 520 31,000  Level Fort Worth Center
11:14PM 34.9692 -95.6958 22° Northeast 457 526 31,000  Level Fort Worth Center
11:15PM 35.0850 -95.6275 26° Northeast 452 520 31,000  Level Fort Worth Center
11:16PM 35.1964 -95.5539 28° Northeast 452 520 31,000  Level Fort Worth Center
11:17PM 35.2994 -95.4678 34° Northeast 447 514 31,000  Level Fort Worth Center
11:18PM 35.4064 -95.3786 34° Northeast 452 520 31,000  Level Fort Worth Center
11:19PM 35.5103 -95.2947 33° Northeast 453 521 31,000  Level Memphis Center
11:20PM 35.6161 -95.2067 34° Northeast 461 531 31,000  Level Memphis Center
11:20PM 35.6367 -95.1864 39° Northeast 456 525 31,000  Level Kansas City Center
11:21PM 35.7217 -95.1181 33° Northeast 461 531 31,000  Level Memphis Center
11:22PM 35.8269 -95.0322 33° Northeast 456 525 31,000  Level Memphis Center
11:23PM 35.9347 -94.9433 34° Northeast 456 525 31,000  Level Memphis Center
11:24PM 36.0419 -94.8569 33° Northeast 456 525 31,000  Level Memphis Center
11:25PM 36.1514 -94.7703 33° Northeast 461 531 31,000  Level Memphis Center
11:25PM 36.1917 -94.7392 32° Northeast 458 527 31,000  Level Kansas City Center
11:26PM 36.3000 -94.6606 30° Northeast 456 525 31,000  Level Kansas City Center
11:27PM 36.4069 -94.5847 30° Northeast 448 516 31,000  Level Kansas City Center
11:28PM 36.5111 -94.5094 30° Northeast 440 506 31,000  Level Kansas City Center
11:30PM 36.6161 -94.4339 30° Northeast 437 503 31,000  Level Kansas City Center
11:31PM 36.7250 -94.3556 30° Northeast 446 513 31,000  Level Kansas City Center
11:32PM 36.8356 -94.2731 31° Northeast 458 527 31,000  Level Kansas City Center
11:33PM 36.9475 -94.1894 31° Northeast 466 536 31,000  Level Kansas City Center
11:34PM 37.0592 -94.1142 28° Northeast 458 527 31,000  Level Kansas City Center
11:35PM 37.1858 -94.0264 29° Northeast 452 520 31,000  Level Kansas City Center
11:36PM 37.2958 -93.9494 29° Northeast 451 519 31,000  Level Kansas City Center
11:37PM 37.4042 -93.8736 29° Northeast 448 516 31,000  Level Kansas City Center
11:38PM 37.5142 -93.7964 29° Northeast 449 517 31,000  Level Kansas City Center
11:39PM 37.6233 -93.7183 30° Northeast 450 518 31,000  Level Kansas City Center
11:40PM 37.7353 -93.6381 30° Northeast 459 528 31,000  Level Kansas City Center
11:41PM 37.8456 -93.5536 31° Northeast 461 531 31,000  Level Kansas City Center
11:42PM 37.9611 -93.4644 31° Northeast 473 544 31,000  Level Kansas City Center
11:43PM 38.0753 -93.3756 31° Northeast 478 550 31,000  Level Kansas City Center
11:44PM 38.1883 -93.2889 31° Northeast 476 548 31,000  Level Kansas City Center
11:45PM 38.2989 -93.2050 31° Northeast 466 536 31,000  Level Kansas City Center
11:46PM 38.4089 -93.1239 30° Northeast 458 527 31,000  Level Kansas City Center
11:47PM 38.5161 -93.0467 29° Northeast 450 518 31,000  Level Kansas City Center
11:48PM 38.6222 -92.9703 29° Northeast 442 509 31,000  Level Kansas City Center
11:49PM 38.7383 -92.8864 29° Northeast 481 554 31,000  Level Kansas City Center
11:50PM 38.8567 -92.8078 27° Northeast 482 555 31,000  Level Kansas City Center
11:51PM 39.0044 -92.7478 18° North 485 558 31,000  Level Kansas City Center
11:52PM 39.1164 -92.7003 18° North 490 564 31,000  Level Kansas City Center
11:53PM 39.2658 -92.6581 12° North 493 567 31,000  Level Kansas City Center
11:54PM 39.3947 -92.6286 10° North 480 552 31,000  Level Kansas City Center
11:55PM 39.5250 -92.6150 North 476 548 31,000  Level Kansas City Center
11:56PM 39.6497 -92.6428 350° North 468 539 31,000  Level Kansas City Center
11:57PM 39.7581 -92.7169 332° Northwest 450 518 31,000  Level Kansas City Center
11:58PM 39.8686 -92.7992 330° Northwest 457 526 31,000  Level Kansas City Center
11:59PM 39.9433 -92.9328 306° West 454 522 31,000 -660 Level Kansas City Center
12:00AM 40.0017 -93.0717 299° West 444 511 29,700 -1,560 Descending Kansas City Center
12:01AM 40.0678 -93.1936 305° West 419 482 27,900 -2,040 Descending Kansas City Center
12:02AM 40.0742 -93.3339 273° West 338 389 25,600 -2,160 Descending Kansas City Center
12:03AM 40.0428 -93.4364 248° West 314 361 23,600 -2,100 Descending Kansas City Center
12:04AM 40.0147 -93.5406 251° West 308 354 21,400 -2,220 Descending Kansas City Center
12:05AM 39.9861 -93.6414 250° West 303 349 19,200 -2,280 Descending Kansas City Center
12:06AM 39.9469 -93.7261 239° Southwest 279 321 16,800 -2,340 Descending Kansas City Center
12:07AM 39.9050 -93.8006 234° Southwest 259 298 14,500 -2,220 Descending Kansas City Center
12:08AM 39.8661 -93.8731 235° Southwest 248 285 12,400 -1,260 Descending Kansas City Center
12:09AM 39.8286 -93.9439 235° Southwest 242 278 12,000 -240 Descending Kansas City Center
12:10AM 39.7975 -94.0336 246° West 257 296 12,000 -300 Level Kansas City Center
12:11AM 39.7722 -94.1106 247° West 242 278 11,400 -1,320 Descending Kansas City Center
12:12AM 39.7281 -94.1881 233° Southwest 241 277 9,400 -1,860 Descending Kansas City Center
12:13AM 39.6903 -94.2533 233° Southwest 236 272 7,700 -1,560 Descending Kansas City Center
12:14AM 39.6556 -94.3133 233° Southwest 220 253 6,300 -1,320 Descending Kansas City Center
12:15AM 39.6264 -94.3856 242° Southwest 204 235 5,100 -1,080 Descending Kansas City Center
12:16AM 39.5889 -94.4419 229° Southwest 213 245 4,200 -600 Descending Kansas City Center
12:17AM 39.5547 -94.5003 233° Southwest 211 243 4,000 -120 Descending Kansas City Center
12:18AM 39.5269 -94.5731 244° Southwest 201 231 4,000  Level Kansas City Center
12:19AM 39.5042 -94.6197 238° Southwest 161 185 4,000  Level Kansas City Center
12:20AM 39.4758 -94.6653 231° Southwest 168 193 4,000 -600 Level Kansas City Center
12:21AM 39.4214 -94.6917 201° Southwest 195 224 2,900 -1,020 Descending Kansas City Center
12:22AM 39.3767 -94.7047 193° South 171 197 2,000 -720 Descending Kansas City Center
12:23AM 39.3411 -94.7158 194° South 140 161 1,500 -540 Descending Kansas City Center
12:24AM 39.3047 -94.7258 192° South 138 159 1,000 -540 Descending Kansas City Center